Time;durP1;ratioP1;P1;durP2;ratioP2;P2;SDS_P1;SDS_P2;PMS_P1;PMS_P2;Temp;Humidity;BMP_temperature;BMP_pressure;BME280_temperature;BME280_humidity;BME280_pressure;Samples;Min_cycle;Max_cycle;Signal;HPM_P1;HPM_P2
2024/02/19 00:02:05;;;;;;;19.95;12.38;;;14.10;89.40;;;;;;5073481;28;20036;-74
2024/02/19 00:04:31;;;;;;;20.75;11.05;;;14.10;89.40;;;;;;5071760;28;20405;-74
2024/02/19 00:06:57;;;;;;;16.05;11.63;;;14.10;89.40;;;;;;5073294;28;20043;-74
2024/02/19 00:09:22;;;;;;;18.80;11.63;;;14.20;89.60;;;;;;5073283;28;20121;-74
2024/02/19 00:11:48;;;;;;;19.85;11.55;;;14.10;89.30;;;;;;5073485;28;20080;-75
2024/02/19 00:14:14;;;;;;;16.02;11.20;;;14.20;89.40;;;;;;5073191;28;20086;-74
2024/02/19 00:16:40;;;;;;;24.15;12.20;;;14.20;89.50;;;;;;5072845;28;20037;-74
2024/02/19 00:19:05;;;;;;;16.75;11.35;;;14.20;89.30;;;;;;5072626;28;20025;-75
2024/02/19 00:21:32;;;;;;;17.75;10.63;;;14.20;89.30;;;;;;5071636;28;20079;-74
2024/02/19 00:23:57;;;;;;;25.17;12.23;;;14.20;89.30;;;;;;5072831;28;20044;-74
2024/02/19 00:26:23;;;;;;;18.15;10.98;;;14.20;89.40;;;;;;5072989;28;20398;-74
2024/02/19 00:28:49;;;;;;;16.92;11.07;;;14.20;89.30;;;;;;5072877;28;20029;-74
2024/02/19 00:31:16;;;;;;;21.02;11.98;;;14.20;89.30;;;;;;5072766;28;20055;-74
2024/02/19 00:33:42;;;;;;;20.10;11.90;;;14.20;89.10;;;;;;5072687;28;20510;-75
2024/02/19 00:36:08;;;;;;;14.57;10.38;;;14.20;89.00;;;;;;5072930;28;20040;-77
2024/02/19 00:38:34;;;;;;;16.15;9.40;;;14.20;88.90;;;;;;5072767;28;20368;-75
2024/02/19 00:41:00;;;;;;;16.40;10.15;;;14.20;88.90;;;;;;5072777;28;20044;-75
2024/02/19 00:43:26;;;;;;;17.30;9.73;;;14.20;88.80;;;;;;5072685;28;20394;-75
2024/02/19 00:45:52;;;;;;;13.23;9.30;;;14.20;88.80;;;;;;5073211;28;20033;-74
2024/02/19 00:48:18;;;;;;;15.60;9.45;;;14.20;88.80;;;;;;5073196;28;20041;-75
2024/02/19 00:50:43;;;;;;;13.43;8.93;;;14.20;88.50;;;;;;5072895;28;20051;-75
2024/02/19 00:53:09;;;;;;;12.90;8.90;;;14.20;88.60;;;;;;5072898;28;20036;-75
2024/02/19 00:55:35;;;;;;;14.68;8.70;;;14.20;88.60;;;;;;5072948;28;20035;-74
2024/02/19 00:58:00;;;;;;;17.60;9.68;;;14.10;88.60;;;;;;5072770;28;20028;-74
2024/02/19 01:00:26;;;;;;;17.65;9.45;;;14.20;88.60;;;;;;5072645;28;20409;-74
2024/02/19 01:02:53;;;;;;;19.33;9.73;;;14.20;88.50;;;;;;5072967;28;20028;-75
2024/02/19 01:05:19;;;;;;;17.15;9.90;;;14.20;88.40;;;;;;5072771;28;20048;-74
2024/02/19 01:07:45;;;;;;;14.15;9.55;;;14.20;88.30;;;;;;5073068;28;20017;-76
2024/02/19 01:10:11;;;;;;;19.33;10.35;;;14.20;88.20;;;;;;5073288;28;20070;-74
2024/02/19 01:12:38;;;;;;;17.40;11.40;;;14.10;88.30;;;;;;5072747;28;20031;-74
2024/02/19 01:15:05;;;;;;;15.52;10.68;;;14.10;88.50;;;;;;5072523;28;20041;-75
2024/02/19 01:17:31;;;;;;;17.70;11.10;;;14.10;88.30;;;;;;5072561;28;20024;-75
2024/02/19 01:19:58;;;;;;;16.95;11.40;;;14.10;88.50;;;;;;5072486;28;20037;-73
2024/02/19 01:22:24;;;;;;;17.40;11.68;;;14.10;88.40;;;;;;5073098;28;20047;-74
2024/02/19 01:24:50;;;;;;;15.38;12.13;;;14.20;88.40;;;;;;5072520;28;20090;-75
2024/02/19 01:27:16;;;;;;;17.05;12.73;;;14.10;88.80;;;;;;5072122;28;20025;-75
2024/02/19 01:29:42;;;;;;;24.05;13.50;;;14.10;88.00;;;;;;5072784;28;20047;-73
2024/02/19 01:32:08;;;;;;;18.77;14.15;;;14.10;87.90;;;;;;5076597;28;20115;-74
2024/02/19 01:34:33;;;;;;;23.38;14.02;;;14.10;87.60;;;;;;5076129;28;20086;-75
2024/02/19 01:36:59;;;;;;;18.73;13.90;;;14.10;87.60;;;;;;5076570;28;20036;-74
2024/02/19 01:39:25;;;;;;;18.33;13.73;;;14.10;87.70;;;;;;5075219;28;20040;-75
2024/02/19 01:41:51;;;;;;;17.42;13.52;;;14.10;87.70;;;;;;5076511;28;20600;-74
2024/02/19 01:44:17;;;;;;;16.58;12.93;;;14.00;87.30;;;;;;5076219;28;20098;-74
2024/02/19 01:46:45;;;;;;;21.60;13.77;;;14.00;87.60;;;;;;5076312;28;20040;-74
2024/02/19 01:49:12;;;;;;;18.98;13.95;;;14.00;87.50;;;;;;5074988;28;20115;-74
2024/02/19 01:51:39;;;;;;;21.15;13.73;;;14.00;87.20;;;;;;5076070;28;20048;-74
2024/02/19 01:54:07;;;;;;;22.50;13.63;;;14.00;87.10;;;;;;5076507;28;20031;-75
2024/02/19 01:56:33;;;;;;;20.48;14.05;;;14.00;87.10;;;;;;5089211;28;20036;-73
2024/02/19 01:59:01;;;;;;;18.92;13.43;;;14.10;87.00;;;;;;5090794;28;20128;-75
2024/02/19 02:01:27;;;;;;;21.15;13.55;;;14.10;86.70;;;;;;5090394;28;20036;-73
2024/02/19 02:03:54;;;;;;;22.67;14.00;;;14.10;86.70;;;;;;5097595;28;20080;-73
2024/02/19 02:06:22;;;;;;;24.92;14.80;;;14.10;86.50;;;;;;5100600;28;20033;-73
2024/02/19 02:08:49;;;;;;;23.52;15.20;;;14.00;86.20;;;;;;5079890;28;20036;-73
2024/02/19 02:11:15;;;;;;;21.20;14.82;;;14.00;86.30;;;;;;5076175;28;20045;-73
2024/02/19 02:13:40;;;;;;;21.50;15.68;;;14.00;86.20;;;;;;5075764;28;20098;-74
2024/02/19 02:16:07;;;;;;;24.73;16.05;;;14.00;86.20;;;;;;5075933;28;20033;-74
2024/02/19 02:18:33;;;;;;;23.35;16.75;;;14.00;86.00;;;;;;5075631;28;20031;-73
2024/02/19 02:20:58;;;;;;;26.63;16.60;;;14.00;86.20;;;;;;5075681;28;20524;-75
2024/02/19 02:23:25;;;;;;;26.10;17.63;;;13.90;86.10;;;;;;5075305;28;20032;-75
2024/02/19 02:25:54;;;;;;;26.45;17.33;;;14.00;86.10;;;;;;5075352;28;20657;-74
2024/02/19 02:28:22;;;;;;;29.42;18.45;;;13.90;85.70;;;;;;5075221;28;20032;-74
2024/02/19 02:30:49;;;;;;;23.67;17.10;;;13.80;85.80;;;;;;5074963;28;20183;-74
2024/02/19 02:33:15;;;;;;;24.40;16.55;;;13.80;85.80;;;;;;5075034;28;20029;-75
2024/02/19 02:35:41;;;;;;;28.45;16.58;;;13.70;86.00;;;;;;5075182;28;20040;-74
2024/02/19 02:38:06;;;;;;;21.15;15.80;;;13.70;85.70;;;;;;5074776;28;20505;-73
2024/02/19 02:40:32;;;;;;;25.88;15.75;;;13.70;85.80;;;;;;5074759;28;20507;-73
2024/02/19 02:42:58;;;;;;;20.17;15.23;;;13.60;85.50;;;;;;5075087;28;20040;-74
2024/02/19 02:45:24;;;;;;;21.08;13.88;;;13.60;85.40;;;;;;5074800;28;20025;-74
2024/02/19 02:47:50;;;;;;;25.13;15.55;;;13.60;85.40;;;;;;5075014;28;20116;-75
2024/02/19 02:50:15;;;;;;;24.85;15.60;;;13.50;85.40;;;;;;5074804;28;20472;-74
2024/02/19 02:52:42;;;;;;;29.42;16.23;;;13.60;85.40;;;;;;5074669;28;20501;-74
2024/02/19 02:55:08;;;;;;;24.13;15.00;;;13.50;85.20;;;;;;5074719;28;20051;-73
2024/02/19 02:57:34;;;;;;;24.58;14.60;;;13.50;85.10;;;;;;5074604;28;20032;-75
2024/02/19 02:59:59;;;;;;;26.20;15.60;;;13.50;85.00;;;;;;5074536;28;20044;-73
2024/02/19 03:02:25;;;;;;;25.73;14.68;;;13.40;85.00;;;;;;5074322;28;20032;-74
2024/02/19 03:04:51;;;;;;;23.45;13.85;;;13.40;85.00;;;;;;5074513;28;20047;-73
2024/02/19 03:07:17;;;;;;;20.42;13.07;;;13.40;84.90;;;;;;5074447;28;20043;-73
2024/02/19 03:09:42;;;;;;;24.15;14.10;;;13.40;84.90;;;;;;5074265;28;20493;-73
2024/02/19 03:12:09;;;;;;;24.73;14.55;;;13.40;84.70;;;;;;5074297;28;20370;-74
2024/02/19 03:14:35;;;;;;;24.67;14.90;;;13.40;84.70;;;;;;5072978;28;20035;-73
2024/02/19 03:17:01;;;;;;;26.33;16.40;;;13.30;84.60;;;;;;5074064;28;20070;-73
2024/02/19 03:19:26;;;;;;;28.13;15.07;;;13.30;84.80;;;;;;5074155;28;20544;-74
2024/02/19 03:21:54;;;;;;;29.83;16.55;;;13.20;84.90;;;;;;5074356;28;20119;-72
2024/02/19 03:24:20;;;;;;;33.80;18.38;;;13.30;84.90;;;;;;5075410;28;20028;-74
2024/02/19 03:26:46;;;;;;;35.35;19.58;;;13.30;84.80;;;;;;5074621;28;20037;-74
2024/02/19 03:29:12;;;;;;;40.78;21.67;;;13.30;85.00;;;;;;5074078;28;20108;-74
2024/02/19 03:31:39;;;;;;;37.80;20.48;;;13.30;85.00;;;;;;5074319;28;20098;-74
2024/02/19 03:34:05;;;;;;;36.42;21.95;;;13.20;85.00;;;;;;5074385;28;20444;-73
2024/02/19 03:36:31;;;;;;;32.78;19.45;;;13.20;85.00;;;;;;5073906;28;20037;-74
2024/02/19 03:38:57;;;;;;;30.40;18.17;;;13.10;84.80;;;;;;5073881;28;20035;-73
2024/02/19 03:41:24;;;;;;;29.55;17.35;;;13.10;84.90;;;;;;5074075;28;20394;-71
2024/02/19 03:43:49;;;;;;;22.45;14.32;;;13.10;85.10;;;;;;5073853;28;20040;-74
2024/02/19 03:46:15;;;;;;;21.98;13.18;;;13.10;84.90;;;;;;5073854;28;20041;-73
2024/02/19 03:48:42;;;;;;;27.40;12.77;;;13.00;85.00;;;;;;5073868;28;20033;-74
2024/02/19 03:51:10;;;;;;;18.75;12.32;;;12.90;85.00;;;;;;5073560;28;20052;-73
2024/02/19 03:53:36;;;;;;;18.05;11.57;;;12.80;85.10;;;;;;5072902;28;20025;-74
2024/02/19 03:56:02;;;;;;;21.92;11.57;;;12.70;85.30;;;;;;5073422;28;20044;-74
2024/02/19 03:58:28;;;;;;;17.70;12.13;;;12.70;85.60;;;;;;5073349;28;20107;-76
2024/02/19 04:00:54;;;;;;;14.82;10.88;;;12.70;85.70;;;;;;5073187;28;20131;-74
2024/02/19 04:03:19;;;;;;;16.02;10.73;;;12.60;85.60;;;;;;5072267;28;20044;-74
2024/02/19 04:05:45;;;;;;;19.20;11.45;;;12.60;85.80;;;;;;5073625;28;20397;-76
2024/02/19 04:08:11;;;;;;;16.85;11.73;;;12.60;85.80;;;;;;5073397;28;20052;-74
2024/02/19 04:10:36;;;;;;;18.88;11.38;;;12.60;85.90;;;;;;5073303;28;20051;-73
2024/02/19 04:13:02;;;;;;;17.00;10.77;;;12.60;85.90;;;;;;5073268;28;20051;-74
2024/02/19 04:15:28;;;;;;;19.02;11.10;;;12.50;85.80;;;;;;5073161;28;20044;-73
2024/02/19 04:17:54;;;;;;;18.52;11.63;;;12.50;86.00;;;;;;5073161;28;20391;-74
2024/02/19 04:20:19;;;;;;;15.98;11.63;;;12.50;85.90;;;;;;5073083;28;20032;-74
2024/02/19 04:22:45;;;;;;;17.95;11.38;;;12.50;85.90;;;;;;5072903;28;20168;-74
2024/02/19 04:25:14;;;;;;;15.95;11.43;;;12.50;86.20;;;;;;5072886;28;20219;-75
2024/02/19 04:27:39;;;;;;;17.48;11.93;;;12.50;86.40;;;;;;5072908;28;20398;-75
2024/02/19 04:30:05;;;;;;;19.25;12.10;;;12.60;86.40;;;;;;5074315;28;20028;-74
2024/02/19 04:32:31;;;;;;;18.35;11.40;;;12.60;86.10;;;;;;5073829;28;20041;-75
2024/02/19 04:34:57;;;;;;;19.92;12.00;;;12.60;86.10;;;;;;5076326;28;20020;-74
2024/02/19 04:37:24;;;;;;;16.77;11.40;;;12.50;86.20;;;;;;5073628;28;20104;-74
2024/02/19 04:39:50;;;;;;;20.85;11.40;;;12.60;86.50;;;;;;5071247;28;20035;-73
2024/02/19 04:42:16;;;;;;;17.58;12.10;;;12.60;86.20;;;;;;5077060;28;20044;-74
2024/02/19 04:44:41;;;;;;;18.30;11.73;;;12.50;86.30;;;;;;5085482;28;20024;-73
2024/02/19 04:47:07;;;;;;;17.17;11.70;;;12.50;87.00;;;;;;5097460;28;20032;-73
2024/02/19 04:49:33;;;;;;;17.75;11.90;;;12.50;86.70;;;;;;5088942;28;20032;-75
2024/02/19 04:51:59;;;;;;;17.83;11.55;;;12.50;86.60;;;;;;5073248;28;20041;-74
2024/02/19 04:54:25;;;;;;;19.23;10.95;;;12.50;86.70;;;;;;5073193;28;20492;-74
2024/02/19 04:56:51;;;;;;;17.42;11.52;;;12.50;86.80;;;;;;5072863;28;20044;-75
2024/02/19 04:59:16;;;;;;;20.35;11.45;;;12.60;86.70;;;;;;5072692;28;20044;-74
2024/02/19 05:01:42;;;;;;;21.08;11.55;;;12.70;86.80;;;;;;5071620;28;20064;-74
2024/02/19 05:04:08;;;;;;;19.33;11.95;;;12.60;86.70;;;;;;5072876;28;20097;-75
2024/02/19 05:06:34;;;;;;;17.05;11.98;;;12.70;86.60;;;;;;5072931;28;20037;-75
2024/02/19 05:08:59;;;;;;;19.80;11.95;;;12.70;86.60;;;;;;5072627;28;20027;-74
2024/02/19 05:11:25;;;;;;;17.38;11.55;;;12.60;86.70;;;;;;5072564;28;20032;-73
2024/02/19 05:13:51;;;;;;;20.60;11.82;;;12.60;86.60;;;;;;5072655;28;20040;-75
2024/02/19 05:16:16;;;;;;;18.40;10.73;;;12.50;86.80;;;;;;5072651;28;20033;-76
2024/02/19 05:18:42;;;;;;;16.45;11.60;;;12.50;86.90;;;;;;5072733;28;20032;-73
2024/02/19 05:21:08;;;;;;;18.17;11.13;;;12.50;86.80;;;;;;5072587;28;20111;-74
2024/02/19 05:23:34;;;;;;;16.92;11.45;;;12.50;86.90;;;;;;5072469;28;20037;-65
2024/02/19 05:26:01;;;;;;;18.55;11.82;;;12.50;86.80;;;;;;5072698;28;20072;-73
2024/02/19 05:28:26;;;;;;;18.15;11.52;;;12.60;86.80;;;;;;5072640;28;20044;-74
2024/02/19 05:30:52;;;;;;;16.38;11.63;;;12.60;87.00;;;;;;5072351;28;20040;-73
2024/02/19 05:33:18;;;;;;;18.27;12.07;;;12.60;86.90;;;;;;5072669;28;20540;-74
2024/02/19 05:35:47;;;;;;;18.58;12.52;;;12.60;86.80;;;;;;5072623;28;20037;-75
2024/02/19 05:38:13;;;;;;;16.27;11.38;;;12.60;86.80;;;;;;5072091;28;20029;-74
2024/02/19 05:40:39;;;;;;;21.42;11.95;;;12.60;87.00;;;;;;5075988;28;20028;-74
2024/02/19 05:43:05;;;;;;;16.40;11.90;;;12.70;86.80;;;;;;5074070;28;20027;-74
2024/02/19 05:45:31;;;;;;;16.95;12.32;;;12.70;86.80;;;;;;5072179;28;20444;-74
2024/02/19 05:47:57;;;;;;;22.60;13.80;;;12.80;86.70;;;;;;5072406;28;20104;-74
2024/02/19 05:50:23;;;;;;;21.13;12.93;;;12.80;86.70;;;;;;5072452;28;20150;-74
2024/02/19 05:52:49;;;;;;;21.50;13.63;;;12.80;87.10;;;;;;5071878;28;20078;-74
2024/02/19 05:55:14;;;;;;;20.23;12.52;;;12.90;86.80;;;;;;5072240;28;20036;-74
2024/02/19 05:57:40;;;;;;;17.88;12.60;;;12.80;86.80;;;;;;5072247;28;20028;-75
2024/02/19 06:00:11;;;;;;;24.30;14.10;;;12.90;86.90;;;;;;5072330;28;20498;-74
2024/02/19 06:02:37;;;;;;;20.35;13.20;;;12.90;86.50;;;;;;5072113;28;20107;-75
2024/02/19 06:05:03;;;;;;;18.23;12.57;;;12.90;86.60;;;;;;5072300;28;20424;-75
2024/02/19 06:07:29;;;;;;;20.83;12.85;;;12.90;86.90;;;;;;5072165;28;20033;-75
2024/02/19 06:09:54;;;;;;;18.75;12.60;;;12.90;86.60;;;;;;5071942;28;20033;-75
2024/02/19 06:12:21;;;;;;;19.65;12.40;;;12.90;86.60;;;;;;5072115;28;20512;-74
2024/02/19 06:14:46;;;;;;;19.58;12.75;;;12.90;86.60;;;;;;5071829;28;20028;-75
2024/02/19 06:17:12;;;;;;;24.48;13.40;;;13.00;86.70;;;;;;5074836;28;20440;-75
2024/02/19 06:19:38;;;;;;;19.80;13.45;;;13.00;86.50;;;;;;5075515;28;20578;-75
2024/02/19 06:22:04;;;;;;;20.15;13.38;;;13.00;86.50;;;;;;5075367;28;20036;-74
2024/02/19 06:24:29;;;;;;;20.67;13.88;;;13.00;86.30;;;;;;5075386;28;20058;-75
2024/02/19 06:26:55;;;;;;;22.90;13.77;;;13.00;86.20;;;;;;5076017;28;20060;-74
2024/02/19 06:29:21;;;;;;;24.92;14.63;;;13.10;86.30;;;;;;5075726;28;20037;-74
2024/02/19 06:31:49;;;;;;;21.48;13.70;;;13.10;86.40;;;;;;5075308;28;20060;-75
2024/02/19 06:34:15;;;;;;;20.33;13.65;;;13.20;86.50;;;;;;5075199;28;20040;-74
2024/02/19 06:36:41;;;;;;;24.50;14.18;;;13.20;86.50;;;;;;5075209;28;20033;-74
2024/02/19 06:39:07;;;;;;;18.20;13.30;;;13.30;86.40;;;;;;5075403;28;20497;-74
2024/02/19 06:41:33;;;;;;;20.00;13.70;;;13.30;86.40;;;;;;5075150;28;20033;-75
2024/02/19 06:43:59;;;;;;;19.90;14.13;;;13.30;86.20;;;;;;5075253;28;20036;-75
2024/02/19 06:46:24;;;;;;;18.88;13.60;;;13.40;86.20;;;;;;5075213;28;20099;-75
2024/02/19 06:48:50;;;;;;;24.25;14.45;;;13.40;86.00;;;;;;5075191;28;20036;-75
2024/02/19 06:51:16;;;;;;;17.42;12.73;;;13.40;85.90;;;;;;5074892;28;20187;-74
2024/02/19 06:53:42;;;;;;;18.58;13.50;;;13.40;86.00;;;;;;5074865;28;20060;-75
2024/02/19 06:56:08;;;;;;;21.75;13.40;;;13.40;85.80;;;;;;5075338;28;20501;-74
2024/02/19 06:58:33;;;;;;;18.35;13.18;;;13.50;86.00;;;;;;5074870;28;20032;-74
2024/02/19 07:00:59;;;;;;;24.63;13.75;;;13.50;86.00;;;;;;5074741;28;20051;-75
2024/02/19 07:03:25;;;;;;;22.58;14.70;;;13.60;85.90;;;;;;5074847;28;20097;-76
2024/02/19 07:05:51;;;;;;;23.83;14.20;;;13.60;85.80;;;;;;5074558;28;20029;-76
2024/02/19 07:08:17;;;;;;;20.00;13.10;;;13.60;85.70;;;;;;5073431;28;20086;-76
2024/02/19 07:10:42;;;;;;;20.17;14.45;;;13.70;85.90;;;;;;5074695;28;20044;-75
2024/02/19 07:13:08;;;;;;;20.85;13.32;;;13.70;85.70;;;;;;5074792;28;20119;-74
2024/02/19 07:15:34;;;;;;;25.13;14.32;;;13.70;85.70;;;;;;5075090;28;20039;-75
2024/02/19 07:17:59;;;;;;;22.20;14.35;;;13.80;85.50;;;;;;5091811;28;20060;-74
2024/02/19 07:20:25;;;;;;;23.48;14.00;;;13.80;85.70;;;;;;5089097;28;20112;-75
2024/02/19 07:22:51;;;;;;;21.98;13.63;;;13.80;85.40;;;;;;5075372;28;20028;-76
2024/02/19 07:25:18;;;;;;;19.10;13.93;;;13.80;85.60;;;;;;5074812;28;20036;-74
2024/02/19 07:27:43;;;;;;;20.63;13.40;;;13.80;85.50;;;;;;5073185;28;20032;-75
2024/02/19 07:30:10;;;;;;;22.95;12.95;;;13.90;85.60;;;;;;5074349;28;20090;-74
2024/02/19 07:32:36;;;;;;;22.92;13.57;;;13.90;85.30;;;;;;5074138;28;20040;-74
2024/02/19 07:35:02;;;;;;;25.48;13.70;;;13.90;85.10;;;;;;5073953;28;20029;-76
2024/02/19 07:37:27;;;;;;;22.10;13.77;;;13.90;85.20;;;;;;5074097;28;20495;-75
2024/02/19 07:39:53;;;;;;;24.42;13.15;;;13.90;85.20;;;;;;5073601;28;20086;-75
2024/02/19 07:42:19;;;;;;;23.85;13.60;;;13.90;85.30;;;;;;5073936;28;20077;-75
2024/02/19 07:44:44;;;;;;;18.20;12.23;;;14.00;85.30;;;;;;5074004;28;20107;-76
2024/02/19 07:47:11;;;;;;;32.38;13.60;;;14.00;85.30;;;;;;5073967;28;20032;-75
2024/02/19 07:49:36;;;;;;;19.92;12.75;;;14.00;85.10;;;;;;5073528;28;20032;-74
2024/02/19 07:52:02;;;;;;;21.45;12.85;;;14.10;85.00;;;;;;5073959;28;20045;-74
2024/02/19 07:54:28;;;;;;;21.30;12.52;;;14.10;84.80;;;;;;5074096;28;20471;-77
2024/02/19 07:56:53;;;;;;;18.33;12.50;;;14.20;84.70;;;;;;5073870;28;20063;-75
2024/02/19 07:59:19;;;;;;;24.02;12.20;;;14.30;84.40;;;;;;5073697;28;20037;-75
2024/02/19 08:01:45;;;;;;;18.75;11.38;;;14.30;84.30;;;;;;5073658;28;20445;-75
2024/02/19 08:04:11;;;;;;;25.00;12.52;;;14.40;84.40;;;;;;5073485;28;20032;-75
2024/02/19 08:06:37;;;;;;;27.40;12.95;;;14.40;84.20;;;;;;5073586;28;20120;-75
2024/02/19 08:09:05;;;;;;;24.90;12.90;;;14.60;84.20;;;;;;5073460;28;20025;-74
2024/02/19 08:11:31;;;;;;;22.50;12.55;;;14.70;84.00;;;;;;5073092;28;20044;-76
2024/02/19 08:13:57;;;;;;;20.88;11.85;;;14.80;83.90;;;;;;5073320;28;20020;-76
2024/02/19 08:16:24;;;;;;;18.40;11.27;;;14.90;83.60;;;;;;5073220;28;20051;-72
2024/02/19 08:18:50;;;;;;;24.92;11.77;;;15.00;83.40;;;;;;5072977;28;20411;-76
2024/02/19 08:21:16;;;;;;;15.63;11.20;;;15.10;83.10;;;;;;5073230;28;20162;-76
2024/02/19 08:23:42;;;;;;;27.75;11.82;;;15.20;82.70;;;;;;5072719;28;20063;-74
2024/02/19 08:26:08;;;;;;;27.02;13.93;;;15.40;82.60;;;;;;5073232;28;20044;-75
2024/02/19 08:28:34;;;;;;;31.80;13.82;;;15.40;82.10;;;;;;5073246;28;20029;-76
2024/02/19 08:31:00;;;;;;;30.52;13.65;;;15.40;82.10;;;;;;5072881;28;20120;-74
2024/02/19 08:33:26;;;;;;;21.65;13.10;;;15.40;81.70;;;;;;5073052;28;20174;-75
2024/02/19 08:35:52;;;;;;;27.60;13.32;;;15.50;81.70;;;;;;5073108;28;20068;-75
2024/02/19 08:38:18;;;;;;;27.48;13.50;;;15.50;82.20;;;;;;5073032;28;20103;-76
2024/02/19 08:40:43;;;;;;;22.67;12.73;;;15.50;81.70;;;;;;5072626;28;20029;-76
2024/02/19 08:43:11;;;;;;;26.58;13.55;;;15.50;81.70;;;;;;5072899;28;20056;-75
2024/02/19 08:45:37;;;;;;;22.25;13.05;;;15.50;81.80;;;;;;5071866;28;20040;-76
2024/02/19 08:48:04;;;;;;;24.77;13.90;;;15.50;81.80;;;;;;5072031;28;20033;-75
2024/02/19 08:50:30;;;;;;;37.92;13.63;;;15.50;82.40;;;;;;5073203;28;20405;-74
2024/02/19 08:52:55;;;;;;;22.63;13.30;;;15.60;81.60;;;;;;5072485;28;20116;-76
2024/02/19 08:55:21;;;;;;;28.80;14.05;;;15.60;81.40;;;;;;5072763;28;20029;-75
2024/02/19 08:57:47;;;;;;;21.90;13.15;;;15.60;81.40;;;;;;5072544;28;20040;-76
2024/02/19 09:00:13;;;;;;;21.23;13.52;;;15.70;81.40;;;;;;5072391;28;20052;-77
2024/02/19 09:02:40;;;;;;;22.83;13.25;;;15.70;81.40;;;;;;5072653;28;20083;-77
2024/02/19 09:05:06;;;;;;;21.08;14.02;;;15.80;81.10;;;;;;5072469;28;20440;-76
2024/02/19 09:07:31;;;;;;;23.25;13.07;;;15.80;81.00;;;;;;5072594;28;20029;-75
2024/02/19 09:09:57;;;;;;;23.95;13.48;;;15.90;80.90;;;;;;5072538;28;20041;-74
2024/02/19 09:12:23;;;;;;;23.38;14.15;;;15.90;80.90;;;;;;5072610;28;20115;-75
2024/02/19 09:14:49;;;;;;;25.80;14.35;;;15.90;81.00;;;;;;5072522;28;20525;-74
2024/02/19 09:17:15;;;;;;;26.08;14.77;;;15.90;80.90;;;;;;5072585;28;20037;-76
2024/02/19 09:19:41;;;;;;;21.15;13.25;;;16.00;80.80;;;;;;5072393;28;20406;-75
2024/02/19 09:22:07;;;;;;;21.80;14.15;;;16.00;80.60;;;;;;5072671;28;20068;-76
2024/02/19 09:24:33;;;;;;;31.55;15.27;;;16.00;80.80;;;;;;5072862;28;20029;-75
2024/02/19 09:26:59;;;;;;;24.45;15.23;;;16.00;80.70;;;;;;5072357;28;20102;-76
2024/02/19 09:29:24;;;;;;;24.30;14.80;;;15.80;80.90;;;;;;5072248;28;20394;-76
2024/02/19 09:31:51;;;;;;;34.00;15.13;;;15.80;80.90;;;;;;5072392;28;20072;-78
2024/02/19 09:34:17;;;;;;;27.52;14.38;;;15.80;81.00;;;;;;5072820;28;20028;-76
2024/02/19 09:36:46;;;;;;;22.50;14.00;;;15.90;81.10;;;;;;5071024;28;20032;-77
2024/02/19 09:39:12;;;;;;;25.08;15.38;;;16.00;80.90;;;;;;5072351;28;20102;-77
2024/02/19 09:41:39;;;;;;;21.42;15.07;;;16.10;80.90;;;;;;5072380;28;20442;-77
2024/02/19 09:44:04;;;;;;;19.85;13.35;;;16.20;80.70;;;;;;5072165;28;20043;-76
2024/02/19 09:46:31;;;;;;;26.92;14.20;;;16.30;80.60;;;;;;5072564;28;20037;-75
2024/02/19 09:48:59;;;;;;;22.52;14.65;;;16.30;80.20;;;;;;5083933;28;20028;-74
2024/02/19 09:51:28;;;;;;;26.73;13.82;;;16.40;80.10;;;;;;5097891;28;20044;-76
2024/02/19 09:53:55;;;;;;;28.13;13.52;;;16.40;80.10;;;;;;5082129;28;20040;-75
2024/02/19 09:56:22;;;;;;;21.95;12.60;;;16.40;80.00;;;;;;5076767;28;20031;-76
2024/02/19 09:58:49;;;;;;;23.30;11.57;;;16.40;80.00;;;;;;5075843;28;20110;-76
2024/02/19 10:01:15;;;;;;;21.02;12.10;;;16.40;80.10;;;;;;5074720;28;20560;-76
2024/02/19 10:03:41;;;;;;;22.65;11.77;;;16.40;80.10;;;;;;5075988;28;20056;-76
2024/02/19 10:06:07;;;;;;;19.75;11.00;;;16.50;79.90;;;;;;5075920;28;20025;-76
2024/02/19 10:08:33;;;;;;;21.65;11.48;;;16.60;79.90;;;;;;5075864;28;20083;-76
2024/02/19 10:11:08;;;;;;;20.73;10.05;;;16.70;79.80;;;;;;5075864;28;20498;-75
2024/02/19 10:13:41;;;;;;;16.95;8.70;;;16.80;79.60;;;;;;5075755;28;20032;-76
2024/02/19 10:16:11;;;;;;;17.00;7.65;;;17.00;79.30;;;;;;5075727;28;20077;-75
2024/02/19 10:18:38;;;;;;;16.25;7.35;;;17.10;79.00;;;;;;5075496;28;20040;-75
2024/02/19 10:21:04;;;;;;;22.48;6.20;;;17.20;78.80;;;;;;5075381;28;20036;-75
2024/02/19 10:23:29;;;;;;;10.70;4.50;;;17.20;78.70;;;;;;5075206;28;20565;-76
2024/02/19 10:25:55;;;;;;;11.48;4.13;;;17.20;78.30;;;;;;5075395;28;20078;-77
2024/02/19 10:28:22;;;;;;;9.73;4.00;;;17.20;78.20;;;;;;5075556;28;20066;-77
2024/02/19 10:30:48;;;;;;;15.95;4.32;;;17.30;78.00;;;;;;5075332;28;20041;-76
2024/02/19 10:33:14;;;;;;;12.32;3.70;;;17.40;77.60;;;;;;5075425;28;20102;-76
2024/02/19 10:35:41;;;;;;;13.98;4.35;;;17.50;77.40;;;;;;5075465;28;20451;-76
2024/02/19 10:38:08;;;;;;;12.10;4.32;;;17.50;77.20;;;;;;5075303;28;20459;-73
2024/02/19 10:40:34;;;;;;;9.82;4.10;;;17.60;76.80;;;;;;5075294;28;20486;-76
2024/02/19 10:43:02;;;;;;;9.52;3.63;;;17.80;76.50;;;;;;5075055;28;20040;-77
2024/02/19 10:45:29;;;;;;;12.18;3.88;;;17.90;76.20;;;;;;5075119;28;20371;-75
2024/02/19 10:47:55;;;;;;;12.65;3.90;;;18.10;75.80;;;;;;5074852;28;20060;-76
2024/02/19 10:50:21;;;;;;;12.55;4.15;;;18.20;75.40;;;;;;5075220;28;20045;-74
2024/02/19 10:52:48;;;;;;;11.75;4.55;;;18.40;75.00;;;;;;5074815;28;20051;-75
2024/02/19 10:55:15;;;;;;;11.48;4.15;;;18.50;74.60;;;;;;5074946;28;20029;-76
2024/02/19 10:57:59;;;;;;;11.95;3.90;;;18.60;74.10;;;;;;5074605;28;20033;-76
2024/02/19 11:00:26;;;;;;;13.75;4.22;;;18.60;73.90;;;;;;5074720;28;20048;-75
2024/02/19 11:03:18;;;;;;;11.75;3.97;;;18.60;73.80;;;;;;5074251;28;20060;-75
2024/02/19 11:05:45;;;;;;;11.98;4.80;;;18.70;73.70;;;;;;5071702;28;20079;-75
2024/02/19 11:08:22;;;;;;;12.55;4.20;;;18.70;73.40;;;;;;5074596;28;20082;-76
2024/02/19 11:10:49;;;;;;;13.48;4.35;;;18.60;73.20;;;;;;5074094;28;20514;-76
2024/02/19 11:13:21;;;;;;;15.82;4.65;;;18.60;73.40;;;;;;5074583;28;20406;-75
2024/02/19 11:15:47;;;;;;;11.65;4.03;;;18.50;73.20;;;;;;5074357;28;20116;-74
2024/02/19 11:18:19;;;;;;;10.63;4.45;;;18.50;73.50;;;;;;5074332;28;20076;-75
2024/02/19 11:20:46;;;;;;;15.30;4.78;;;18.50;73.50;;;;;;5073075;28;20107;-77
2024/02/19 11:23:15;;;;;;;12.85;4.40;;;18.50;73.80;;;;;;5073892;28;20432;-76
2024/02/19 11:25:46;;;;;;;13.30;3.78;;;18.50;73.40;;;;;;5074374;28;20035;-76
2024/02/19 11:28:14;;;;;;;12.85;4.57;;;18.40;73.20;;;;;;5074305;28;20120;-74
2024/02/19 11:30:40;;;;;;;10.20;3.88;;;18.50;72.90;;;;;;5074325;28;20025;-76
2024/02/19 11:33:08;;;;;;;11.95;4.00;;;18.60;72.90;;;;;;5072614;28;20036;-74
2024/02/19 11:35:34;;;;;;;13.20;4.00;;;18.70;72.50;;;;;;5073719;28;20031;-74
2024/02/19 11:38:00;;;;;;;8.88;3.75;;;18.60;72.10;;;;;;5074069;28;20036;-77
2024/02/19 11:40:32;;;;;;;9.80;3.60;;;18.60;72.10;;;;;;5073683;28;20441;-75
2024/02/19 11:43:03;;;;;;;9.48;3.72;;;18.70;72.30;;;;;;5073501;28;20575;-76
2024/02/19 11:45:30;;;;;;;13.73;4.07;;;18.80;71.80;;;;;;5073912;28;20103;-75
2024/02/19 11:47:57;;;;;;;12.88;3.78;;;18.70;71.60;;;;;;5073588;28;20036;-77
2024/02/19 11:50:29;;;;;;;10.50;3.35;;;18.70;71.50;;;;;;5073747;28;20068;-76
2024/02/19 11:52:58;;;;;;;14.05;3.25;;;18.60;71.30;;;;;;5071870;28;20037;-75
2024/02/19 11:55:24;;;;;;;11.02;3.28;;;18.60;71.40;;;;;;5072115;28;20035;-76
2024/02/19 11:57:52;;;;;;;10.77;3.47;;;18.70;71.00;;;;;;5073785;28;20094;-75
2024/02/19 12:00:18;;;;;;;8.77;3.15;;;18.80;70.50;;;;;;5073194;28;20044;-75
2024/02/19 12:02:53;;;;;;;9.25;3.42;;;18.90;70.40;;;;;;5073444;28;20066;-76
2024/02/19 12:05:19;;;;;;;14.85;3.17;;;19.10;70.50;;;;;;5073341;28;20040;-76
2024/02/19 12:07:46;;;;;;;11.10;3.45;;;18.90;69.70;;;;;;5073408;28;20099;-76
2024/02/19 12:10:12;;;;;;;13.32;3.42;;;18.70;69.70;;;;;;5073089;28;20497;-76
2024/02/19 12:12:39;;;;;;;12.35;4.10;;;18.60;70.30;;;;;;5071753;28;20051;-76
2024/02/19 12:15:12;;;;;;;9.13;3.58;;;18.60;70.40;;;;;;5072314;28;20040;-74
2024/02/19 12:17:43;;;;;;;9.73;3.00;;;18.60;70.50;;;;;;5072951;28;20032;-74
2024/02/19 12:20:12;;;;;;;6.53;3.00;;;18.70;69.90;;;;;;5073590;28;20035;-73
2024/02/19 12:22:38;;;;;;;11.52;2.97;;;18.70;69.60;;;;;;5075162;28;20448;-76
2024/02/19 12:25:05;;;;;;;11.68;3.08;;;18.80;68.80;;;;;;5074253;28;20101;-75
2024/02/19 12:27:31;;;;;;;12.05;3.10;;;18.90;68.50;;;;;;5080681;28;20036;-75